METAR AND TAF INFORMATION
METAR FOR EGBB
ADDS - METARS form results

(1802 UTC 11 July 2020)
Data provider http://aviationweather.gov/metar/data/
 
METAR text: EGBB 111750Z 34008KT 9999 BKN049 18/07 Q1027
Conditions at: EGBB (BIRMINGHAM AIRPO, GB) observed 1750 UTC 11 July 2020
Temperature: 18.0°C (64°F)
Dewpoint: 7.0°C (45°F) [RH = 49%]
Pressure (altimeter): 30.32 inches Hg (1027.0 mb)
Winds: from the NNW (340 degrees) at 9 MPH (8 knots; 4.1 m/s)
Visibility: 6 or more miles (10+ km)
Ceiling: 4900 feet AGL
Clouds: broken clouds at 4900 feet AGL
Weather: no significant weather observed at this time

METAR text: EGBB 111720Z 34008KT CAVOK 18/06 Q1027
Conditions at: EGBB (BIRMINGHAM AIRPO, GB) observed 1720 UTC 11 July 2020
Temperature: 18.0°C (64°F)
Dewpoint: 6.0°C (43°F) [RH = 45%]
Pressure (altimeter): 30.32 inches Hg (1027.0 mb)
Winds: from the NNW (340 degrees) at 9 MPH (8 knots; 4.1 m/s)
Visibility: 6 or more miles (10+ km)
Ceiling: ceiling and visibility are OK
Clouds: unknown
Weather: no significant weather observed at this time

Forecast for: EGBB (BIRMINGHAM AIRPO, GB)
Text: TAF EGBB 111653Z 1118/1218 31006KT 9999 FEW045
Forecast period: 1800 UTC 11 July 2020 to 1800 UTC 12 July 2020
Forecast type: FROM: standard forecast or significant change
Winds: from the NW (310 degrees) at 7 MPH (6 knots; 3.1 m/s)
Visibility: 6 or more miles 10+ km)
Ceiling: at least 12,000 feet AGL
Clouds: few clouds at 4500 feet AGL
Weather: no significant weather forecast for this period
Text: PROB30 1200/1208 8000
Forecast period: 0000 to 0800 UTC 12 July 2020
Forecast type: PROBABLE: 30 percent likelihood of the following during this time
Visibility: 5 miles (8 km)
Ceiling: unknown
Clouds: missing
Weather: no significant weather forecast for this period

 AIRPORT MAP

 RUNWAY INFORMATION
Runway 15 Runway length 8527 ft Runway width 151 ft
Runway elevation 305 ft Runway displaced threshold 1069 ft Runway heading 148
Runway 33 Runway length 8527 ft Runway width 151 ft
Runway elevation 328 ft Runway displaced threshold 987 ft Runway heading 328

 AIRPORT FREQUENCIES
Type APP Name APP Frequency 118.05 MHZ
Type ATIS Name ATIS Frequency 136.02 MHZ
Type GND Name GND Frequency 121.8 MHZ
Type TWR Name TWR Frequency 118.3 MHZ

 AIRPORT NEAR NAVIGATION AIDS
Type NDB Name Birmingham Frequency 406 KHZ